Nora, VA (24272)

12:46 AM EDT on July 05, 2015 (GMT -0400)
Lonesome Pine | | Change Station
CLOSE
Current Station
Airport
Location: Wise,
Elevation: 2684 ft
Nearby Weather Stations

Elev 2684 ft 36.99 °N, 82.53 °W | Updated 11 minutes ago

Overcast
Overcast
66 °F
Feels Like 66 °F
N
0
Wind Variable Wind from North

Today
High -- | Low -- °F
--% Chance of Precip.
Yesterday
High -- | Low -- °F
Precip. -- in
6:15 AM 8:52 PM
Waning Gibbous, 88% visible
Pressure 30.16 in
Visibility 7.0 miles
Clouds Scattered Clouds 6000 ft
Mostly Cloudy 7000 ft
Overcast 8000 ft
Dew Point 66 °F
Humidity 100%
Rainfall 0.11 in
Snow Depth Not available.
UV 0 out of 12
Pollen .50 out of 12
Air Quality Not available.
Flu Activity Not available.
METAR KLNP 050435Z AUTO 00000KT 7SM -RA SCT060 BKN070 OVC080 19/19 A3016 RMK AO2 P0006

More Conditions Fewer Conditions

Pressure 30.16 in
Visibility 7.0 miles
Clouds Scattered Clouds 6000 ft
Mostly Cloudy 7000 ft
Overcast 8000 ft
Dew Point 66 °F
Humidity 100%
Rainfall 0.11 in
Snow Depth Not available.
UV 0 out of 12
Pollen .50 out of 12
Air Quality Not available.
Flu Activity Not available.
METAR KLNP 050435Z AUTO 00000KT 7SM -RA SCT060 BKN070 OVC080 19/19 A3016 RMK AO2 P0006

More Conditions Fewer Conditions

10-Day Weather Forecast

×

Almanac

Astronomy

Jul. 05, 2015 Rise Set
Actual Time
Civil Twilight
Nautical Twilight
Astronomical Twilight
Moon
Length of Visible Light
Length of Day
Tomorrow will be .
, % of the Moon is Illuminated

Today's Extremes

State Highs State Lows

Community

WunderPhotos

Upload Photos

1,835,200 photos uploaded!

WunderBlogs® & News

Nearby

Air Quality

  Air Quality AQ Index Pollutant
Not available.

Snow Depth

Station Depth Elevation

Earthquake Activity

City Distance Mag. Time & Date
Minimum magnitude displayed is 2.5.

Coastal Water Temperatures

Place Temperature

Stations

Nearby Weather Stations

Station Location Temp. Windchill Dew Point Humidity Wind Precip. Elev Updated Type